Home > Products > Valid Products > TAF

000
FTUS44 KEWX 271130
TAFDRT
TAF
KDRT 271130Z 2712/2812 33005KT P6SM SKC
     FM271600 15008KT P6SM SKC
     FM280300 11005KT P6SM SKC=



000
FTUS44 KEWX 271130
TAFSAT
TAF
KSAT 271130Z 2712/2818 31005KT P6SM SKC
     FM271800 25010KT P6SM SKC
     FM280000 23005KT P6SM SKC=



000
FTUS44 KEWX 271130
TAFAUS
TAF
KAUS 271130Z 2712/2818 26006KT P6SM SKC
     FM271600 28011KT P6SM SKC
     FM280000 VRB03KT P6SM SKC=



000
FTUS44 KEWX 270527
TAFAUS
TAF
KAUS 270527Z 2706/2812 33006KT P6SM SKC
     FM271600 27011KT P6SM SKC=



000
FTUS44 KEWX 270527
TAFSAT
TAF
KSAT 270527Z 2706/2812 34004KT P6SM SKC
     FM271800 25010KT P6SM SKC=



000
FTUS44 KEWX 270527
TAFDRT
TAF
KDRT 270527Z 2706/2806 33005KT P6SM SKC
     FM271600 15008KT P6SM SKC=



000
FTUS44 KEWX 262320
TAFDRT
TAF
KDRT 262320Z 2700/2724 33016KT P6SM SCT250
     FM270200 36005KT P6SM SKC
     FM271600 14005KT P6SM SKC=



000
FTUS44 KEWX 262320
TAFDRT
TAF
KDRT 262320Z 2700/2724 33016KT P6SM SCT250
     FM270200 36005KT P6SM SKC
     FM271600 14005KT P6SM SKC=



000
FTUS44 KEWX 262320
TAFAUS
TAF
KAUS 262320Z 2700/2806 36012KT P6SM SCT250
     FM270400 34005KT P6SM SKC
     FM271600 27011KT P6SM SKC=



000
FTUS44 KEWX 262320
TAFSAT
TAF
KSAT 262320Z 2700/2806 36012KT P6SM SCT250
     FM270300 34004KT P6SM SKC
     FM271800 26010KT P6SM SKC=



000
FTUS44 KEWX 262320
TAFSAT
TAF
KSAT 262320Z 2700/2806 36012KT P6SM SCT250
     FM270300 34004KT P6SM SKC
     FM271800 26010KT P6SM SKC=



000
FTUS44 KEWX 262320
TAFAUS
TAF
KAUS 262320Z 2700/2806 36012KT P6SM SCT250
     FM270400 34005KT P6SM SKC
     FM271600 27011KT P6SM SKC=



000
FTUS44 KEWX 261740
TAFAUS
TAF
KAUS 261740Z 2618/2724 33015G25KT P6SM FEW060 BKN200
     FM270000 36012KT P6SM SCT250
     FM270300 34005KT P6SM SKC=



000
FTUS44 KEWX 261740
TAFDRT
TAF
KDRT 261740Z 2618/2718 32017G27KT P6SM BKN250
     FM262100 33016KT P6SM SCT250
     FM270100 36005KT P6SM SKC=



000
FTUS44 KEWX 261740
TAFSAT
TAF
KSAT 261740Z 2618/2724 35016G26KT P6SM FEW070 BKN200
     FM270000 36011KT P6SM SCT250
     FM270300 34004KT P6SM SKC=



000
FTUS44 KEWX 261740
TAFAUS
TAF
KAUS 261740Z 2618/2724 33015G25KT P6SM FEW060 BKN200
     FM270000 36012KT P6SM SCT250
     FM270300 34005KT P6SM SKC=



000
FTUS44 KEWX 261740
TAFDRT
TAF
KDRT 261740Z 2618/2718 32017G27KT P6SM BKN250
     FM262100 33016KT P6SM SCT250
     FM270100 36005KT P6SM SKC=



000
FTUS44 KEWX 261740
TAFSAT
TAF
KSAT 261740Z 2618/2724 35016G26KT P6SM FEW070 BKN200
     FM270000 36011KT P6SM SCT250
     FM270300 34004KT P6SM SKC=



000
FTUS44 KEWX 261624 AAA
TAFAUS
TAF AMD
KAUS 261624Z 2616/2718 34015G25KT P6SM SCT040 BKN200
     FM270000 36012KT P6SM SCT250
     FM270300 34005KT P6SM SKC=



000
FTUS44 KEWX 261124
TAFAUS
TAF
KAUS 261124Z 2612/2718 35017G27KT P6SM BKN025 BKN200
     FM261700 36019G29KT P6SM BKN200
     FM270000 36012KT P6SM SCT250
     FM270300 34005KT P6SM SKC=



000
FTUS44 KEWX 261124
TAFDRT
TAF
KDRT 261124Z 2612/2712 33018G28KT P6SM BKN040 BKN200
     FM261600 33018G28KT P6SM BKN200
     FM262100 33016KT P6SM SCT250
     FM270100 36005KT P6SM SKC=



000
FTUS44 KEWX 261124
TAFSAT
TAF
KSAT 261124Z 2612/2718 35017G27KT P6SM VCSH BKN018 BKN200
     FM261400 36018G28KT P6SM BKN025 BKN200
     FM261600 36019G29KT P6SM BKN200
     FM270000 36011KT P6SM SCT250
     FM270300 34004KT P6SM SKC=



000
FTUS44 KEWX 260934 AAB
TAFDRT
TAF AMD
KDRT 260934Z 2610/2706 31007KT P6SM BKN009 BKN030
     FM261030 35015G25KT P6SM -SHRA BKN015
     FM261100 34015G25KT P6SM BKN025
     FM261300 33020G30KT P6SM BKN200
     FM262100 33016KT P6SM SCT250
     FM270100 36005KT P6SM SKC=



000
FTUS44 KEWX 260934 AAB
TAFDRT
TAF AMD
KDRT 260934Z 2610/2706 31007KT P6SM BKN009 BKN030
     FM261030 35015G25KT P6SM -SHRA BKN015
     FM261100 34015G25KT P6SM BKN025
     FM261300 33020G30KT P6SM BKN200
     FM262100 33016KT P6SM SCT250
     FM270100 36005KT P6SM SKC=



000
FTUS44 KEWX 260932 AAC
TAFSAT
TAF AMD
KSAT 260932Z 2610/2712 21005KT 6SM BR OVC006
     FM261030 35013G23KT P6SM -SHRA OVC012
     FM261200 36019G29KT P6SM BKN025 OVC200
     FM261400 36021G31KT P6SM BKN200
     FM270000 36011KT P6SM SCT250
     FM270300 34004KT P6SM SKC=



000
FTUS44 KEWX 260841 CCA
TAFSAT
TAF COR
KSAT 260841Z 2609/2712 17005KT 6SM BR OVC007
     FM261000 35013G23KT P6SM -SHRA OVC012
     FM261200 36019G29KT P6SM BKN025 OVC200
     FM261400 36021G31KT P6SM BKN200
     FM270000 36011KT P6SM SCT250
     FM270300 34004KT P6SM SKC=



000
FTUS44 KEWX 260841 CCA
TAFSAT
TAF COR
KSAT 260841Z 2609/2712 17005KT 6SM BR OVC007
     FM261000 35013G23KT P6SM -SHRA OVC012
     FM261200 36019G29KT P6SM BKN025 OVC200
     FM261400 36021G31KT P6SM BKN200
     FM270000 36011KT P6SM SCT250
     FM270300 34004KT P6SM SKC=



000
FTUS44 KEWX 260839 AAB
TAFSAT
TAF AMD
KSAT 260839Z 2609/2712 17005KT 6SM BR OVC007
     FM261015 35013G23KT P6SM -SHRA OVC012
     FM261200 36019G29KT P6SM BKN025 OVC200
     FM261400 36021G31KT P6SM BKN200
     FM270000 36011KT P6SM SCT250
     FM270300 34004KT P6SM SKC=



000
FTUS44 KEWX 260839 AAB
TAFSAT
TAF AMD
KSAT 260839Z 2609/2712 17005KT 6SM BR OVC007
     FM261015 35013G23KT P6SM -SHRA OVC012
     FM261200 36019G29KT P6SM BKN025 OVC200
     FM261400 36021G31KT P6SM BKN200
     FM270000 36011KT P6SM SCT250
     FM270300 34004KT P6SM SKC=



000
FTUS44 KEWX 260838 AAA
TAFDRT
TAF AMD
KDRT 260838Z 2609/2706 08007KT P6SM BKN030
     FM260930 35017G27KT P6SM -SHRA BKN015
     FM261100 34015G25KT P6SM BKN025
     FM261300 33020G30KT P6SM BKN200
     FM262100 33016KT P6SM SCT250
     FM270100 36005KT P6SM SKC=



000
FTUS44 KEWX 260838 AAA
TAFDRT
TAF AMD
KDRT 260838Z 2609/2706 08007KT P6SM BKN030
     FM260930 35017G27KT P6SM -SHRA BKN015
     FM261100 34015G25KT P6SM BKN025
     FM261300 33020G30KT P6SM BKN200
     FM262100 33016KT P6SM SCT250
     FM270100 36005KT P6SM SKC=



000
FTUS44 KEWX 260837 AAB
TAFAUS
TAF AMD
KAUS 260837Z 2609/2712 20006KT P6SM OVC008
     FM260915 34015G25KT P6SM -SHRA OVC012
     FM261100 35020G30KT P6SM BKN040 OVC250
     FM261500 36022G32KT P6SM BKN200
     FM270000 36012KT P6SM SCT250
     FM270300 34005KT P6SM SKC=



000
FTUS44 KEWX 260837 AAB
TAFAUS
TAF AMD
KAUS 260837Z 2609/2712 20006KT P6SM OVC008
     FM260915 34015G25KT P6SM -SHRA OVC012
     FM261100 35020G30KT P6SM BKN040 OVC250
     FM261500 36022G32KT P6SM BKN200
     FM270000 36012KT P6SM SCT250
     FM270300 34005KT P6SM SKC=



000
FTUS44 KEWX 260653 AAA
TAFAUS
TAF AMD
KAUS 260653Z 2607/2712 19006KT P6SM BKN012 OVC250
     FM260900 34015G25KT P6SM -SHRA OVC012
     FM261100 35020G30KT P6SM BKN040 OVC250
     FM261500 36022G32KT P6SM BKN200
     FM270000 36012KT P6SM SCT250
     FM270300 34005KT P6SM SKC=



000
FTUS44 KEWX 260653 AAA
TAFSAT
TAF AMD
KSAT 260653Z 2607/2712 17006KT P6SM OVC008
     FM261000 35013G23KT P6SM -SHRA OVC012
     FM261200 36019G29KT P6SM BKN025 OVC200
     FM261400 36021G31KT P6SM BKN200
     FM270000 36011KT P6SM SCT250
     FM270300 34004KT P6SM SKC=



000
FTUS44 KEWX 260653 AAA
TAFSAT
TAF AMD
KSAT 260653Z 2607/2712 17006KT P6SM OVC008
     FM261000 35013G23KT P6SM -SHRA OVC012
     FM261200 36019G29KT P6SM BKN025 OVC200
     FM261400 36021G31KT P6SM BKN200
     FM270000 36011KT P6SM SCT250
     FM270300 34004KT P6SM SKC=



000
FTUS44 KEWX 260653 AAA
TAFAUS
TAF AMD
KAUS 260653Z 2607/2712 19006KT P6SM BKN012 OVC250
     FM260900 34015G25KT P6SM -SHRA OVC012
     FM261100 35020G30KT P6SM BKN040 OVC250
     FM261500 36022G32KT P6SM BKN200
     FM270000 36012KT P6SM SCT250
     FM270300 34005KT P6SM SKC=



000
FTUS44 KEWX 260539
TAFAUS
TAF
KAUS 260539Z 2606/2712 19006KT P6SM SCT012 OVC250
      TEMPO 2607/2609 BKN012
     FM260900 34015G25KT P6SM -SHRA OVC012
     FM261100 35020G30KT P6SM BKN040 OVC250
     FM261500 36022G32KT P6SM BKN200
     FM270000 36012KT P6SM SCT250
     FM270300 34005KT P6SM SKC=



000
FTUS44 KEWX 260539
TAFDRT
TAF
KDRT 260539Z 2606/2706 11004KT P6SM BKN030
     FM260900 35017G27KT P6SM VCSH BKN015
     FM261100 34015G25KT P6SM BKN025
     FM261300 33020G30KT P6SM BKN200
     FM262100 33016KT P6SM SCT250
     FM270100 36005KT P6SM SKC=



000
FTUS44 KEWX 260539
TAFSAT
TAF
KSAT 260539Z 2606/2712 16006KT P6SM BKN012 OVC250
     FM261000 35013G23KT P6SM -SHRA OVC012
     FM261200 36019G29KT P6SM BKN025 OVC200
     FM261400 36021G31KT P6SM BKN200
     FM270000 36011KT P6SM SCT250
     FM270300 34004KT P6SM SKC=



000
FTUS44 KEWX 260539
TAFAUS
TAF
KAUS 260539Z 2606/2712 19006KT P6SM SCT012 OVC250
      TEMPO 2607/2609 BKN012
     FM260900 34015G25KT P6SM -SHRA OVC012
     FM261100 35020G30KT P6SM BKN040 OVC250
     FM261500 36022G32KT P6SM BKN200
     FM270000 36012KT P6SM SCT250
     FM270300 34005KT P6SM SKC=



000
FTUS44 KEWX 260539
TAFDRT
TAF
KDRT 260539Z 2606/2706 11004KT P6SM BKN030
     FM260900 35017G27KT P6SM VCSH BKN015
     FM261100 34015G25KT P6SM BKN025
     FM261300 33020G30KT P6SM BKN200
     FM262100 33016KT P6SM SCT250
     FM270100 36005KT P6SM SKC=



000
FTUS44 KEWX 260539
TAFSAT
TAF
KSAT 260539Z 2606/2712 16006KT P6SM BKN012 OVC250
     FM261000 35013G23KT P6SM -SHRA OVC012
     FM261200 36019G29KT P6SM BKN025 OVC200
     FM261400 36021G31KT P6SM BKN200
     FM270000 36011KT P6SM SCT250
     FM270300 34004KT P6SM SKC=



000
FTUS44 KEWX 260346 AAA
TAFAUS
TAF AMD
KAUS 260346Z 2604/2706 17012KT P6SM FEW040 SCT250
     FM260600 17010KT P6SM BKN012
     FM260900 34012G22KT P6SM -SHRA OVC012
     FM261100 35020G30KT P6SM BKN040
     FM261600 36022G32KT P6SM BKN250
     FM270000 36012KT P6SM SCT250=



000
FTUS44 KEWX 260227 AAA
TAFSAT
TAF AMD
KSAT 260227Z 2602/2706 17016KT P6SM BKN040
     FM260500 17013KT P6SM OVC012
     FM260700 18007KT P6SM OVC008
     FM261000 34010G20KT P6SM -SHRA OVC012
     FM261200 35020G30KT P6SM BKN025
     FM261400 36019G29KT P6SM BKN250
     FM270000 36011KT P6SM SCT250=



000
FTUS44 KEWX 260227 AAA
TAFSAT
TAF AMD
KSAT 260227Z 2602/2706 17016KT P6SM BKN040
     FM260500 17013KT P6SM OVC012
     FM260700 18007KT P6SM OVC008
     FM261000 34010G20KT P6SM -SHRA OVC012
     FM261200 35020G30KT P6SM BKN025
     FM261400 36019G29KT P6SM BKN250
     FM270000 36011KT P6SM SCT250=



000
FTUS44 KEWX 252320
TAFAUS
TAF
KAUS 252320Z 2600/2706 17012KT P6SM FEW040 SCT250
     FM260400 17010KT P6SM BKN012
     FM260900 34012G22KT P6SM -SHRA OVC012
     FM261100 35020G30KT P6SM BKN040
     FM261600 36022G32KT P6SM BKN250
     FM270000 36012KT P6SM SCT250=



000
FTUS44 KEWX 252320
TAFDRT
TAF
KDRT 252320Z 2600/2624 14008KT P6SM VCSH SCT100
     FM260600 11007KT P6SM BKN015
     FM260900 35017KT P6SM VCSH BKN015
     FM261100 34015G25KT P6SM BKN025
     FM261300 33020G30KT P6SM OVC100=



000
FTUS44 KEWX 252320
TAFSAT
TAF
KSAT 252320Z 2600/2706 17016KT P6SM BKN040
     FM260300 17013KT P6SM OVC012
     FM260700 18007KT P6SM OVC008
     FM261000 34010G20KT P6SM -SHRA OVC012
     FM261200 35020G30KT P6SM BKN025
     FM261400 36019G29KT P6SM BKN250
     FM270000 36011KT P6SM SCT250=



000
FTUS44 KEWX 252320
TAFAUS
TAF
KAUS 252320Z 2600/2706 17012KT P6SM FEW040 SCT250
     FM260400 17010KT P6SM BKN012
     FM260900 34012G22KT P6SM -SHRA OVC012
     FM261100 35020G30KT P6SM BKN040
     FM261600 36022G32KT P6SM BKN250
     FM270000 36012KT P6SM SCT250=



000
FTUS44 KEWX 252320
TAFDRT
TAF
KDRT 252320Z 2600/2624 14008KT P6SM VCSH SCT100
     FM260600 11007KT P6SM BKN015
     FM260900 35017KT P6SM VCSH BKN015
     FM261100 34015G25KT P6SM BKN025
     FM261300 33020G30KT P6SM OVC100=



000
FTUS44 KEWX 252320
TAFSAT
TAF
KSAT 252320Z 2600/2706 17016KT P6SM BKN040
     FM260300 17013KT P6SM OVC012
     FM260700 18007KT P6SM OVC008
     FM261000 34010G20KT P6SM -SHRA OVC012
     FM261200 35020G30KT P6SM BKN025
     FM261400 36019G29KT P6SM BKN250
     FM270000 36011KT P6SM SCT250=



000
FTUS44 KEWX 251732
TAFAUS
TAF
KAUS 251732Z 2518/2624 18011G21KT P6SM FEW250
     FM260100 17012KT P6SM FEW040 SCT250
     FM260300 17010KT P6SM BKN015
     FM260600 18006KT P6SM OVC008
     FM261000 34012G22KT P6SM -SHRA OVC012
     FM261300 35015G25KT P6SM BKN020
     FM261600 36015G25KT P6SM BKN050=



000
FTUS44 KEWX 251732
TAFSAT
TAF
KSAT 251732Z 2518/2624 17009G19KT P6SM FEW250
     FM260300 16012KT P6SM BKN015
     FM260600 18006KT 6SM BR OVC008
     FM261100 36013G23KT P6SM -SHRA OVC012
     FM261400 36015G25KT P6SM BKN020
     FM261600 36015G25KT P6SM BKN050=



000
FTUS44 KEWX 251732
TAFDRT
TAF
KDRT 251732Z 2518/2618 12013KT P6SM OVC010
     FM252100 14008KT P6SM SCT025 SCT250
      TEMPO 2522/2602 -TSRA BKN040CB
     FM260600 11007KT P6SM BKN015
     FM261000 35015G25KT P6SM -SHRA BKN015
     FM261300 33020G30KT P6SM BKN040=



000
FTUS44 KEWX 251535 AAA
TAFAUS
TAF AMD
KAUS 251535Z 2516/2618 19014KT P6SM SCT015 SCT250
     FM251700 18014G24KT P6SM SCT050 SCT250
     FM260100 17012KT P6SM FEW040 SCT250
     FM260300 17010KT P6SM BKN012
     FM260600 18006KT P6SM BKN008
     FM261000 34012G22KT P6SM -SHRA BKN012
     FM261200 35014G24KT P6SM BKN020=



000
FTUS44 KEWX 251535 AAA
TAFSAT
TAF AMD
KSAT 251535Z 2516/2618 15007KT P6SM FEW015 SCT250
     FM251800 17014KT P6SM SCT040 SCT250
     FM260300 16012KT P6SM BKN012
     FM260600 18006KT 6SM BR BKN008
     FM261100 36013G23KT P6SM -SHRA BKN012
     FM261300 36015G25KT P6SM BKN020=



000
FTUS44 KEWX 251411 AAA
TAFDRT
TAF AMD
KDRT 251411Z 2514/2612 12010KT P6SM OVC007
     FM251800 14009KT P6SM SCT040 SCT250 PROB30 2523/2603 TSRA
      BKN040CB
     FM260600 11007KT P6SM BKN015
     FM261000 35015G25KT P6SM -SHRA BKN015=



000
FTUS44 KEWX 251411 AAA
TAFDRT
TAF AMD
KDRT 251411Z 2514/2612 12010KT P6SM OVC007
     FM251800 14009KT P6SM SCT040 SCT250 PROB30 2523/2603 TSRA
      BKN040CB
     FM260600 11007KT P6SM BKN015
     FM261000 35015G25KT P6SM -SHRA BKN015=



000
FTUS44 KEWX 251130
TAFDRT
TAF
KDRT 251130Z 2512/2612 12009KT P6SM BKN012
     FM251800 14009KT P6SM SCT040 SCT250 PROB30 2523/2603 TSRA
      BKN040CB
     FM260600 11007KT P6SM BKN015
     FM261000 35015G25KT P6SM -SHRA BKN015=



000
FTUS44 KEWX 251130
TAFDRT
TAF
KDRT 251130Z 2512/2612 12009KT P6SM BKN012
     FM251800 14009KT P6SM SCT040 SCT250 PROB30 2523/2603 TSRA
      BKN040CB
     FM260600 11007KT P6SM BKN015
     FM261000 35015G25KT P6SM -SHRA BKN015=



000
FTUS44 KEWX 251130
TAFSAT
TAF
KSAT 251130Z 2512/2618 18006KT P6SM OVC010
     FM251800 17014KT P6SM SCT040 SCT250
     FM260300 16012KT P6SM BKN012
     FM260600 18006KT 6SM BR BKN008
     FM261100 36013G23KT P6SM -SHRA BKN012
     FM261300 36015G25KT P6SM BKN020=



000
FTUS44 KEWX 251130
TAFAUS
TAF
KAUS 251130Z 2512/2618 19009KT P6SM OVC012
     FM251700 18014G24KT P6SM SCT030 SCT250
     FM260100 17012KT P6SM FEW040 SCT250
     FM260300 17010KT P6SM BKN012
     FM260600 18006KT P6SM BKN008
     FM261000 34012G22KT P6SM -SHRA BKN012
     FM261200 35014G24KT P6SM BKN020=



000
FTUS44 KEWX 251130
TAFAUS
TAF
KAUS 251130Z 2512/2618 19009KT P6SM OVC012
     FM251700 18014G24KT P6SM SCT030 SCT250
     FM260100 17012KT P6SM FEW040 SCT250
     FM260300 17010KT P6SM BKN012
     FM260600 18006KT P6SM BKN008
     FM261000 34012G22KT P6SM -SHRA BKN012
     FM261200 35014G24KT P6SM BKN020=



000
FTUS44 KEWX 251130
TAFSAT
TAF
KSAT 251130Z 2512/2618 18006KT P6SM OVC010
     FM251800 17014KT P6SM SCT040 SCT250
     FM260300 16012KT P6SM BKN012
     FM260600 18006KT 6SM BR BKN008
     FM261100 36013G23KT P6SM -SHRA BKN012
     FM261300 36015G25KT P6SM BKN020=



000
FTUS44 KEWX 250715 AAB
TAFAUS
TAF AMD
KAUS 250715Z 2507/2612 19009KT P6SM BKN011
     FM251000 19007KT P6SM BKN008
     FM251700 18014G24KT P6SM FEW030 BKN250
     FM260100 17012KT P6SM FEW040 BKN250
     FM260300 18010KT P6SM BKN012
     FM260600 17006KT 3SM BR BKN008
     FM261000 34012G22KT P6SM -SHRA BKN015=



000
FTUS44 KEWX 250715 AAB
TAFAUS
TAF AMD
KAUS 250715Z 2507/2612 19009KT P6SM BKN011
     FM251000 19007KT P6SM BKN008
     FM251700 18014G24KT P6SM FEW030 BKN250
     FM260100 17012KT P6SM FEW040 BKN250
     FM260300 18010KT P6SM BKN012
     FM260600 17006KT 3SM BR BKN008
     FM261000 34012G22KT P6SM -SHRA BKN015=



000
FTUS44 KEWX 250647 AAA
TAFSAT
TAF AMD
KSAT 250647Z 2507/2612 18006KT P6SM BKN007
     FM251500 18008KT P6SM BKN012
     FM251800 16014KT P6SM FEW040 BKN250
     FM260200 16012KT P6SM BKN012
     FM260700 16006KT 3SM BR BKN008
     FM261100 36013G23KT P6SM -SHRA BKN015=



000
FTUS44 KEWX 250647 AAA
TAFSAT
TAF AMD
KSAT 250647Z 2507/2612 18006KT P6SM BKN007
     FM251500 18008KT P6SM BKN012
     FM251800 16014KT P6SM FEW040 BKN250
     FM260200 16012KT P6SM BKN012
     FM260700 16006KT 3SM BR BKN008
     FM261100 36013G23KT P6SM -SHRA BKN015=



000
FTUS44 KEWX 250641 AAA
TAFAUS
TAF AMD
KAUS 250641Z 2507/2612 18009KT P6SM FEW250
     FM250800 19005KT P6SM BKN012
      TEMPO 2511/2514 3SM BR BKN008
     FM251700 18014G24KT P6SM FEW030 BKN250
     FM260100 17012KT P6SM FEW040 BKN250
     FM260300 18010KT P6SM BKN012
     FM260600 17006KT 3SM BR BKN008
     FM261000 34012G22KT P6SM -SHRA BKN015=



000
FTUS44 KEWX 250641 AAA
TAFAUS
TAF AMD
KAUS 250641Z 2507/2612 18009KT P6SM FEW250
     FM250800 19005KT P6SM BKN012
      TEMPO 2511/2514 3SM BR BKN008
     FM251700 18014G24KT P6SM FEW030 BKN250
     FM260100 17012KT P6SM FEW040 BKN250
     FM260300 18010KT P6SM BKN012
     FM260600 17006KT 3SM BR BKN008
     FM261000 34012G22KT P6SM -SHRA BKN015=



000
FTUS44 KEWX 250534
TAFDRT
TAF
KDRT 250534Z 2506/2606 12008KT P6SM FEW250
     FM251100 11005KT P6SM BKN007
     FM251500 13008KT P6SM BKN012
     FM251800 14009KT P6SM SCT040 BKN250 PROB30 2523/2603 TSRA
      BKN040CB=



000
FTUS44 KEWX 250534
TAFAUS
TAF
KAUS 250534Z 2506/2612 18009KT P6SM FEW250
     FM251000 19005KT P6SM BKN012
      TEMPO 2511/2514 3SM BR BKN008
     FM251700 18014G24KT P6SM FEW030 BKN250
     FM260100 17012KT P6SM FEW040 BKN250
     FM260300 18010KT P6SM BKN012
     FM260600 17006KT 3SM BR BKN008
     FM261000 34012G22KT P6SM -SHRA BKN015=



000
FTUS44 KEWX 250534
TAFSAT
TAF
KSAT 250534Z 2506/2612 16010KT P6SM FEW250
     FM250800 19005KT 5SM BR BKN007
     FM251500 18008KT P6SM BKN012
     FM251800 16014KT P6SM FEW040 BKN250
     FM260200 16012KT P6SM BKN012
     FM260700 16006KT 3SM BR BKN008
     FM261100 36013G23KT P6SM -SHRA BKN015=



000
FTUS44 KEWX 242330
TAFSAT
TAF
KSAT 242330Z 2500/2606 17008KT P6SM FEW250
     FM250700 19005KT P6SM BKN007
     FM251500 18008KT P6SM BKN012
     FM251800 16014KT P6SM FEW040 BKN250
     FM260200 16012KT P6SM BKN012=



000
FTUS44 KEWX 242330
TAFDRT
TAF
KDRT 242330Z 2500/2524 16009KT P6SM FEW250
     FM250100 11007KT P6SM FEW250
     FM251100 11005KT P6SM BKN007
     FM251500 14008KT P6SM BKN012
     FM251800 14012KT P6SM SCT040 BKN250=



000
FTUS44 KEWX 242330
TAFAUS
TAF
KAUS 242330Z 2500/2606 17010KT P6SM FEW250
     FM250800 19005KT P6SM BKN007
     FM251500 19008KT P6SM BKN012
     FM251800 18015G25KT P6SM FEW040 BKN250
     FM260100 18012KT P6SM FEW040 BKN250
     FM260300 18010KT P6SM BKN012=



000
FTUS44 KEWX 242330
TAFAUS
TAF
KAUS 242330Z 2500/2606 17010KT P6SM FEW250
     FM250800 19005KT P6SM BKN007
     FM251500 19008KT P6SM BKN012
     FM251800 18015G25KT P6SM FEW040 BKN250
     FM260100 18012KT P6SM FEW040 BKN250
     FM260300 18010KT P6SM BKN012=



000
FTUS44 KEWX 242330
TAFDRT
TAF
KDRT 242330Z 2500/2524 16009KT P6SM FEW250
     FM250100 11007KT P6SM FEW250
     FM251100 11005KT P6SM BKN007
     FM251500 14008KT P6SM BKN012
     FM251800 14012KT P6SM SCT040 BKN250=



000
FTUS44 KEWX 242330
TAFSAT
TAF
KSAT 242330Z 2500/2606 17008KT P6SM FEW250
     FM250700 19005KT P6SM BKN007
     FM251500 18008KT P6SM BKN012
     FM251800 16014KT P6SM FEW040 BKN250
     FM260200 16012KT P6SM BKN012=



000
FTUS44 KEWX 242134 AAA
TAFAUS
TAF AMD
KAUS 242134Z 2422/2524 17012KT P6SM SKC
     FM250200 17008KT P6SM SKC
     FM251000 19005KT P6SM BKN007
     FM251700 18015KT P6SM SCT050 SCT250=



000
FTUS44 KEWX 242134 AAA
TAFAUS
TAF AMD
KAUS 242134Z 2422/2524 17012KT P6SM SKC
     FM250200 17008KT P6SM SKC
     FM251000 19005KT P6SM BKN007
     FM251700 18015KT P6SM SCT050 SCT250=



000
FTUS44 KEWX 241735
TAFAUS
TAF
KAUS 241735Z 2418/2524 18015KT P6SM SCT010 SCT250
     FM250200 17010KT P6SM FEW250
     FM251000 19005KT P6SM BKN007
     FM251700 18015KT P6SM BKN050=



000
FTUS44 KEWX 241735
TAFSAT
TAF
KSAT 241735Z 2418/2524 18012KT P6SM FEW250
     FM250200 16010KT P6SM FEW250
     FM250900 19005KT P6SM BKN007
     FM251700 16012KT P6SM BKN050=



000
FTUS44 KEWX 241735
TAFDRT
TAF
KDRT 241735Z 2418/2518 14010KT P6SM SCT250
     FM251100 11005KT P6SM BKN007
     FM251700 14010KT P6SM BKN050=



000
FTUS44 KEWX 241735
TAFAUS
TAF
KAUS 241735Z 2418/2524 18015KT P6SM SCT010 SCT250
     FM250200 17010KT P6SM FEW250
     FM251000 19005KT P6SM BKN007
     FM251700 18015KT P6SM BKN050=



000
FTUS44 KEWX 241735
TAFDRT
TAF
KDRT 241735Z 2418/2518 14010KT P6SM SCT250
     FM251100 11005KT P6SM BKN007
     FM251700 14010KT P6SM BKN050=



000
FTUS44 KEWX 241735
TAFSAT
TAF
KSAT 241735Z 2418/2524 18012KT P6SM FEW250
     FM250200 16010KT P6SM FEW250
     FM250900 19005KT P6SM BKN007
     FM251700 16012KT P6SM BKN050=



000
FTUS44 KEWX 241451 AAB
TAFDRT
TAF AMD
KDRT 241451Z 2415/2512 11008KT P6SM OVC009
     FM241700 14010KT P6SM SCT250
     FM251100 11007KT P6SM BKN007=



000
FTUS44 KEWX 241447 AAA
TAFSAT
TAF AMD
KSAT 241447Z 2415/2518 20005KT P6SM OVC010
     FM241600 18010KT P6SM SCT010
     FM241800 20012KT P6SM FEW250
     FM250200 16008KT P6SM FEW250
     FM250900 19007KT P6SM BKN007=



000
FTUS44 KEWX 241447 AAA
TAFSAT
TAF AMD
KSAT 241447Z 2415/2518 20005KT P6SM OVC010
     FM241600 18010KT P6SM SCT010
     FM241800 20012KT P6SM FEW250
     FM250200 16008KT P6SM FEW250
     FM250900 19007KT P6SM BKN007=



000
FTUS44 KEWX 241311 AAA
TAFDRT
TAF AMD
KDRT 241311Z 2413/2512 11008KT P6SM OVC009
     FM241400 12007KT P6SM SCT005 SCT250
     FM241600 14010KT P6SM SCT250
     FM251100 11007KT P6SM BKN007=



000
FTUS44 KEWX 241311 AAA
TAFDRT
TAF AMD
KDRT 241311Z 2413/2512 11008KT P6SM OVC009
     FM241400 12007KT P6SM SCT005 SCT250
     FM241600 14010KT P6SM SCT250
     FM251100 11007KT P6SM BKN007=



000
FTUS44 KEWX 241308 AAA
TAFAUS
TAF AMD
KAUS 241308Z 2413/2518 19005KT 6SM BR SCT007
     FM241400 19015KT 6SM BR BKN008
     FM241600 19005KT P6SM SCT010 SCT250
     FM241900 19013G23KT P6SM SCT250
     FM250200 17009KT P6SM FEW250
     FM251000 19007KT P6SM BKN007=



000
FTUS44 KEWX 241308 AAA
TAFAUS
TAF AMD
KAUS 241308Z 2413/2518 19005KT 6SM BR SCT007
     FM241400 19015KT 6SM BR BKN008
     FM241600 19005KT P6SM SCT010 SCT250
     FM241900 19013G23KT P6SM SCT250
     FM250200 17009KT P6SM FEW250
     FM251000 19007KT P6SM BKN007=



    US Dept of Commerce
    National Oceanic and Atmospheric Administration
    National Weather Service
    1325 East West Highway
    Silver Spring, MD 20910
    Page Author: NWS Internet Services Team
Disclaimer
Information Quality
Credits
Glossary
Privacy Policy
Freedom of Information Act (FOIA)
About Us
Career Opportunities